DTNH

Enfidha - Hammamet International Airport

Enfidha, Tunisia
METAR DTNH 200100Z 03006KT 8000 FEW033 10/07 Q1015
Observed Flight Rules
Jan-20 @ 01:00 UTC (23 minutes ago) Marginal Visual Flight Rules
Wind Visibility Clouds
30° at 6 knots 7,998 meters
  • Few at 3,300' AGL
Temperatures Readings
Current 10°C / 50°F
Dewpoint 7°C / 45°F
Humidity 82%
Altimeter 29.97" Hg
Pressure 1015 hPa
Elevation 2
METAR DTNH 200100Z 03006KT 8000 FEW033 10/07 Q1015
Observed Flight Rules
Jan-20 @ 01:00 UTC
(23 minutes ago)
MVFR
Wind Visibility
30° at 6 knots 7,998 meters
Clouds
  • Few at 3,300' AGL
Temperature Dewpoint
10°C / 50°F 7°C / 45°F
Humidity Altimeter Pressure
82% 29.97" Hg 1015 hPa